createdAt,value
2023-02-21T00:02:04.433Z,89.60
2023-02-21T00:04:50.129Z,90.20
2023-02-21T00:07:36.755Z,90.60
2023-02-21T00:10:24.972Z,90.40
2023-02-21T00:13:10.754Z,91.00
2023-02-21T00:15:57.138Z,91.10
2023-02-21T00:18:42.639Z,91.10
2023-02-21T00:21:28.593Z,91.40
2023-02-21T00:24:14.321Z,92.50
2023-02-21T00:26:59.959Z,93.30
2023-02-21T00:29:45.989Z,92.50
2023-02-21T00:32:32.087Z,92.80
2023-02-21T00:35:17.988Z,93.60
2023-02-21T00:38:03.485Z,95.00
2023-02-21T00:40:49.421Z,97.00
2023-02-21T00:43:36.725Z,97.80
2023-02-21T00:46:23.051Z,97.60
2023-02-21T00:49:08.679Z,98.40
2023-02-21T00:51:54.732Z,97.80
2023-02-21T00:54:40.403Z,96.60
2023-02-21T00:57:26.187Z,96.40
2023-02-21T01:00:11.878Z,96.30
2023-02-21T01:02:57.855Z,96.90
2023-02-21T01:05:43.495Z,98.50
2023-02-21T01:08:29.078Z,98.80
2023-02-21T01:11:15.150Z,98.90
2023-02-21T01:14:01.075Z,99.80
2023-02-21T01:16:53.003Z,99.80
2023-02-21T01:19:38.716Z,99.90
2023-02-21T01:22:24.482Z,99.40
2023-02-21T01:25:10.652Z,99.90
2023-02-21T01:27:56.714Z,99.90
2023-02-21T01:30:42.761Z,99.90
2023-02-21T01:33:29.975Z,99.90
2023-02-21T01:36:16.013Z,99.90
2023-02-21T01:39:02.138Z,99.90
2023-02-21T01:41:47.850Z,99.90
2023-02-21T01:44:56.312Z,99.90
2023-02-21T01:47:43.285Z,99.90
2023-02-21T01:50:48.174Z,99.90
2023-02-21T01:53:43.695Z,99.90
2023-02-21T01:56:29.930Z,99.90
2023-02-21T01:59:17.711Z,99.90
2023-02-21T02:02:16.999Z,99.90
2023-02-21T02:05:03.964Z,99.90
2023-02-21T02:07:50.041Z,99.90
2023-02-21T02:10:36.130Z,99.90
2023-02-21T02:13:09.045Z,99.90
2023-02-21T02:15:59.435Z,99.90
2023-02-21T02:18:38.849Z,99.90
2023-02-21T02:21:43.755Z,99.90
2023-02-21T02:24:16.889Z,99.90
2023-02-21T02:27:21.822Z,99.90
2023-02-21T02:30:23.928Z,99.90
2023-02-21T02:33:10.247Z,99.90
2023-02-21T02:35:46.949Z,99.90
2023-02-21T02:38:33.372Z,99.90
2023-02-21T02:41:29.372Z,99.90
2023-02-21T02:44:10.250Z,99.90
2023-02-21T02:46:40.819Z,99.90
2023-02-21T02:49:14.932Z,99.90
2023-02-21T02:51:42.248Z,99.90
2023-02-21T02:54:09.623Z,99.90
2023-02-21T02:56:37.163Z,99.90
2023-02-21T02:59:11.304Z,99.90
2023-02-21T03:02:08.174Z,99.90
2023-02-21T03:05:25.845Z,99.90
2023-02-21T03:08:19.261Z,99.90
2023-02-21T03:11:01.591Z,99.90
2023-02-21T03:13:34.845Z,99.90
2023-02-21T03:16:19.962Z,99.90
2023-02-21T03:18:52.584Z,99.90
2023-02-21T03:21:28.757Z,99.90
2023-02-21T03:24:00.869Z,99.90
2023-02-21T03:26:32.153Z,99.90
2023-02-21T03:29:00.022Z,99.90
2023-02-21T03:31:33.519Z,99.90
2023-02-21T03:34:00.783Z,99.90
2023-02-21T03:36:28.617Z,99.90
2023-02-21T03:38:55.893Z,99.90
2023-02-21T03:41:23.213Z,99.90
2023-02-21T03:43:50.605Z,99.90
2023-02-21T03:46:17.955Z,99.90
2023-02-21T03:48:45.273Z,99.90
2023-02-21T03:51:12.911Z,99.90
2023-02-21T03:53:40.204Z,99.90
2023-02-21T03:56:08.350Z,99.90
2023-02-21T03:58:38.024Z,99.90
2023-02-21T04:01:05.963Z,99.90
2023-02-21T04:03:33.356Z,99.90
2023-02-21T04:06:00.631Z,99.90
2023-02-21T04:08:28.080Z,99.90
2023-02-21T04:10:55.287Z,99.90
2023-02-21T04:13:23.929Z,99.90
2023-02-21T04:15:51.366Z,99.90
2023-02-21T04:18:18.710Z,99.90
2023-02-21T04:20:47.620Z,99.90
2023-02-21T04:23:20.549Z,99.90
2023-02-21T04:25:48.480Z,99.90
2023-02-21T04:28:16.172Z,99.90
2023-02-21T04:30:43.352Z,99.90
2023-02-21T04:33:10.738Z,99.90
2023-02-21T04:35:37.971Z,99.90
2023-02-21T04:38:05.229Z,99.90
2023-02-21T04:40:32.807Z,99.90
2023-02-21T04:43:00.241Z,99.90
2023-02-21T04:45:27.605Z,99.90
2023-02-21T04:47:54.882Z,99.90
2023-02-21T04:50:22.191Z,99.90
2023-02-21T04:52:49.660Z,99.90
2023-02-21T04:55:16.964Z,99.90
2023-02-21T04:57:44.277Z,99.90
2023-02-21T05:00:12.428Z,99.90
2023-02-21T05:02:46.151Z,99.90
2023-02-21T05:05:14.252Z,99.90
2023-02-21T05:07:43.343Z,99.90
2023-02-21T05:10:12.074Z,99.90
2023-02-21T05:12:40.131Z,99.90
2023-02-21T05:15:08.395Z,99.90
2023-02-21T05:17:36.049Z,99.90
2023-02-21T05:20:04.361Z,99.90
2023-02-21T05:22:31.674Z,99.90
2023-02-21T05:24:59.211Z,99.90
2023-02-21T05:27:26.546Z,99.90
2023-02-21T05:29:54.209Z,99.90
2023-02-21T05:32:23.133Z,99.90
2023-02-21T05:34:50.538Z,99.90
2023-02-21T05:37:21.429Z,99.90
2023-02-21T05:39:49.221Z,99.90
2023-02-21T05:42:16.504Z,99.90
2023-02-21T05:44:47.995Z,99.90
2023-02-21T05:47:15.753Z,99.90
2023-02-21T05:49:43.679Z,99.90
2023-02-21T05:52:13.033Z,99.90
2023-02-21T05:54:40.349Z,99.90
2023-02-21T05:57:07.702Z,99.90
2023-02-21T05:59:35.098Z,99.90
2023-02-21T06:02:02.744Z,99.90
2023-02-21T06:04:30.026Z,99.90
2023-02-21T06:06:57.389Z,99.90
2023-02-21T06:09:24.684Z,99.90
2023-02-21T06:11:55.744Z,99.90
2023-02-21T06:14:22.988Z,99.90
2023-02-21T06:16:50.357Z,99.90
2023-02-21T06:19:18.984Z,99.90
2023-02-21T06:21:47.229Z,99.90
2023-02-21T06:24:14.552Z,99.90
2023-02-21T06:26:42.560Z,99.90
2023-02-21T06:29:11.385Z,99.90
2023-02-21T06:31:38.912Z,99.90
2023-02-21T06:34:07.852Z,99.90
2023-02-21T06:36:35.909Z,99.90
2023-02-21T06:39:03.680Z,99.90
2023-02-21T06:41:32.180Z,99.90
2023-02-21T06:44:00.282Z,99.90
2023-02-21T06:46:30.240Z,99.90
2023-02-21T06:48:57.879Z,99.90
2023-02-21T06:51:29.994Z,99.90
2023-02-21T06:53:58.634Z,99.90
2023-02-21T06:56:26.125Z,99.90
2023-02-21T06:58:54.179Z,99.90
2023-02-21T07:01:23.382Z,99.90
2023-02-21T07:03:50.837Z,99.90
2023-02-21T07:06:18.164Z,99.90
2023-02-21T07:08:45.468Z,99.90
2023-02-21T07:11:13.978Z,99.90
2023-02-21T07:13:41.986Z,99.90
2023-02-21T07:16:09.342Z,99.90
2023-02-21T07:18:36.890Z,99.90
2023-02-21T07:21:04.718Z,99.90
2023-02-21T07:23:36.798Z,99.90
2023-02-21T07:26:07.372Z,99.90
2023-02-21T07:28:34.656Z,99.90
2023-02-21T07:31:02.122Z,99.90
2023-02-21T07:33:29.550Z,99.90
2023-02-21T07:35:56.932Z,99.90
2023-02-21T07:38:29.583Z,99.90
2023-02-21T07:40:59.113Z,99.90
2023-02-21T07:43:28.350Z,99.90
2023-02-21T07:45:56.411Z,99.90
2023-02-21T07:48:24.010Z,99.90
2023-02-21T07:50:51.452Z,99.90
2023-02-21T07:53:19.190Z,99.90
2023-02-21T07:55:46.539Z,99.90
2023-02-21T07:58:13.921Z,99.90
2023-02-21T08:00:41.406Z,99.90
2023-02-21T08:03:12.644Z,99.90
2023-02-21T08:05:40.256Z,99.90
2023-02-21T08:08:10.043Z,99.90
2023-02-21T08:10:37.270Z,99.90
2023-02-21T08:13:05.868Z,99.70
2023-02-21T08:15:33.186Z,98.80
2023-02-21T08:18:00.729Z,98.60
2023-02-21T08:20:28.185Z,98.40
2023-02-21T08:22:55.512Z,97.80
2023-02-21T08:25:22.919Z,98.00
2023-02-21T08:27:53.833Z,97.40
2023-02-21T08:30:21.649Z,97.40
2023-02-21T08:32:49.089Z,97.20
2023-02-21T08:35:16.852Z,97.10
2023-02-21T08:37:50.265Z,97.20
2023-02-21T08:40:20.447Z,95.90
2023-02-21T08:42:52.337Z,95.60
2023-02-21T08:45:21.857Z,95.30
2023-02-21T08:47:50.036Z,94.80
2023-02-21T08:50:17.644Z,94.40
2023-02-21T08:52:47.441Z,94.50
2023-02-21T08:55:15.145Z,93.80
2023-02-21T08:57:42.364Z,93.10
2023-02-21T09:00:13.961Z,92.80
2023-02-21T09:02:41.266Z,92.10
2023-02-21T09:05:18.990Z,91.50
2023-02-21T09:07:49.961Z,91.10
2023-02-21T09:10:18.113Z,91.30
2023-02-21T09:12:45.363Z,91.20
2023-02-21T09:15:16.260Z,90.50
2023-02-21T09:17:43.970Z,95.00
2023-02-21T09:20:15.446Z,94.40
2023-02-21T09:22:47.320Z,92.90
2023-02-21T09:25:18.887Z,93.20
2023-02-21T09:27:46.319Z,89.90
2023-02-21T09:30:18.066Z,88.10
2023-02-21T09:32:45.638Z,86.20
2023-02-21T09:35:14.567Z,90.20
2023-02-21T09:37:42.914Z,87.00
2023-02-21T09:40:16.075Z,86.50
2023-02-21T09:42:43.528Z,81.20
2023-02-21T09:45:20.128Z,83.00
2023-02-21T09:47:51.487Z,81.80
2023-02-21T09:50:23.443Z,83.90
2023-02-21T09:52:50.622Z,82.20
2023-02-21T09:55:20.718Z,80.10
2023-02-21T09:57:49.939Z,79.60
2023-02-21T10:00:23.735Z,79.90
2023-02-21T10:03:17.666Z,77.00
2023-02-21T10:06:05.674Z,76.80
2023-02-21T10:08:42.098Z,76.20
2023-02-21T10:11:41.151Z,75.00
2023-02-21T10:14:37.771Z,74.80
2023-02-21T10:17:18.610Z,73.60
2023-02-21T10:19:50.782Z,74.70
2023-02-21T10:22:25.796Z,76.60
2023-02-21T10:24:53.735Z,73.20
2023-02-21T10:27:27.787Z,71.70
2023-02-21T10:30:05.750Z,71.10
2023-02-21T10:32:33.622Z,70.70
2023-02-21T10:35:01.328Z,69.20
2023-02-21T10:37:42.493Z,68.50
2023-02-21T10:40:31.643Z,69.20
2023-02-21T10:43:09.143Z,68.20
2023-02-21T10:45:46.813Z,66.80
2023-02-21T10:48:15.522Z,67.00
2023-02-21T10:50:52.002Z,64.80
2023-02-21T10:53:36.185Z,66.00
2023-02-21T10:56:18.727Z,66.60
2023-02-21T10:58:52.759Z,65.00
2023-02-21T11:01:23.331Z,65.50
2023-02-21T11:03:51.873Z,63.70
2023-02-21T11:06:33.243Z,63.10
2023-02-21T11:09:01.349Z,61.80
2023-02-21T11:11:41.102Z,62.10
2023-02-21T11:14:35.221Z,57.00
2023-02-21T11:17:17.912Z,50.70
2023-02-21T11:19:49.529Z,45.40
2023-02-21T11:22:21.859Z,44.60
2023-02-21T11:25:07.237Z,42.00
2023-02-21T11:27:36.514Z,43.50
2023-02-21T11:30:16.699Z,42.70
2023-02-21T11:33:08.117Z,43.40
2023-02-21T11:35:39.956Z,42.90
2023-02-21T11:38:29.590Z,44.10
2023-02-21T11:40:56.980Z,48.10
2023-02-21T11:43:32.842Z,50.70
2023-02-21T11:46:30.027Z,49.90
2023-02-21T11:49:15.237Z,50.50
2023-02-21T11:52:13.202Z,50.60
2023-02-21T11:54:41.500Z,50.60
2023-02-21T11:57:47.341Z,50.40
2023-02-21T12:00:29.541Z,49.70
2023-02-21T12:03:11.991Z,49.30
2023-02-21T12:05:49.599Z,49.80
2023-02-21T12:08:36.719Z,49.30
2023-02-21T12:11:26.675Z,48.50
2023-02-21T12:14:24.267Z,48.10
2023-02-21T12:17:21.972Z,49.30
2023-02-21T12:20:01.014Z,49.00
2023-02-21T12:22:39.936Z,48.20
2023-02-21T12:25:23.463Z,49.30
2023-02-21T12:28:02.480Z,47.90
2023-02-21T12:30:51.292Z,44.90
2023-02-21T12:33:29.995Z,40.10
2023-02-21T12:36:12.479Z,38.90
2023-02-21T12:39:16.458Z,37.50
2023-02-21T12:42:23.999Z,37.70
2023-02-21T12:44:59.659Z,37.20
2023-02-21T12:48:00.210Z,37.20
2023-02-21T12:50:38.784Z,36.70
2023-02-21T12:53:10.393Z,37.10
2023-02-21T12:55:49.447Z,36.90
2023-02-21T12:58:39.153Z,36.80
2023-02-21T13:01:22.620Z,36.40
2023-02-21T13:04:04.071Z,36.80
2023-02-21T13:06:37.915Z,35.90
2023-02-21T13:09:10.916Z,36.10
2023-02-21T13:11:58.028Z,36.40
2023-02-21T13:14:39.357Z,34.80
2023-02-21T13:17:10.875Z,34.80
2023-02-21T13:20:05.557Z,35.50
2023-02-21T13:23:30.266Z,35.80
2023-02-21T13:26:25.622Z,36.10
2023-02-21T13:28:57.345Z,35.10
2023-02-21T13:31:28.123Z,34.60
2023-02-21T13:33:59.509Z,34.80
2023-02-21T13:36:29.210Z,34.50
2023-02-21T13:39:07.357Z,34.70
2023-02-21T13:41:58.453Z,34.30
2023-02-21T13:44:34.228Z,34.20
2023-02-21T13:47:14.214Z,34.00
2023-02-21T13:49:42.901Z,34.30
2023-02-21T13:52:26.299Z,33.90
2023-02-21T13:55:15.837Z,34.10
2023-02-21T13:58:01.081Z,34.10
2023-02-21T14:00:28.731Z,34.40
2023-02-21T14:03:25.044Z,34.00
2023-02-21T14:05:52.758Z,34.80
2023-02-21T14:08:51.615Z,34.30
2023-02-21T14:11:29.148Z,34.60
2023-02-21T14:13:57.581Z,34.50
2023-02-21T14:16:48.467Z,34.60
2023-02-21T14:19:31.534Z,34.70
2023-02-21T14:22:17.165Z,35.10
2023-02-21T14:24:51.845Z,34.60
2023-02-21T14:27:19.007Z,34.60
2023-02-21T14:30:06.568Z,34.40
2023-02-21T14:32:47.506Z,34.00
2023-02-21T14:35:30.493Z,34.00
2023-02-21T14:38:04.259Z,34.10
2023-02-21T14:41:09.016Z,33.60
2023-02-21T14:43:56.496Z,33.60
2023-02-21T14:46:41.029Z,33.90
2023-02-21T14:49:37.466Z,34.40
2023-02-21T14:52:10.489Z,34.80
2023-02-21T14:55:07.879Z,34.20
2023-02-21T14:57:44.021Z,34.00
2023-02-21T15:01:02.308Z,34.20
2023-02-21T15:03:51.869Z,34.20
2023-02-21T15:06:23.012Z,34.60
2023-02-21T15:08:52.271Z,34.80
2023-02-21T15:11:37.846Z,35.30
2023-02-21T15:14:12.610Z,35.30
2023-02-21T15:16:46.472Z,35.60
2023-02-21T15:19:23.546Z,35.70
2023-02-21T15:22:06.434Z,35.40
2023-02-21T15:24:36.057Z,35.60
2023-02-21T15:27:12.136Z,35.90
2023-02-21T15:29:42.844Z,37.10
2023-02-21T15:32:12.809Z,37.40
2023-02-21T15:34:43.194Z,38.10
2023-02-21T15:37:39.336Z,37.70
2023-02-21T15:40:20.588Z,38.80
2023-02-21T15:42:50.047Z,41.30
2023-02-21T15:48:23.933Z,44.20
2023-02-21T15:51:03.658Z,45.30
2023-02-21T15:53:31.070Z,45.80
2023-02-21T15:56:28.610Z,46.20
2023-02-21T15:59:20.609Z,46.40
2023-02-21T16:02:14.532Z,46.60
2023-02-21T16:04:47.362Z,46.80
2023-02-21T16:07:37.431Z,47.40
2023-02-21T16:10:08.452Z,47.30
2023-02-21T16:12:43.797Z,47.70
2023-02-21T16:15:14.091Z,48.50
2023-02-21T16:17:45.669Z,48.50
2023-02-21T16:20:15.711Z,49.70
2023-02-21T16:23:06.874Z,50.30
2023-02-21T16:25:55.110Z,50.50
2023-02-21T16:28:23.383Z,50.00
2023-02-21T16:30:51.059Z,50.70
2023-02-21T16:33:22.536Z,50.70
2023-02-21T16:35:50.098Z,51.10
2023-02-21T16:38:19.559Z,51.00
2023-02-21T16:40:47.959Z,51.50
2023-02-21T16:43:24.651Z,52.20
2023-02-21T16:45:54.446Z,53.00
2023-02-21T16:48:27.380Z,53.20
2023-02-21T16:50:55.605Z,53.40
2023-02-21T16:53:23.158Z,52.80
2023-02-21T16:55:51.706Z,52.50
2023-02-21T16:58:28.176Z,53.50
2023-02-21T17:01:09.321Z,53.60
2023-02-21T17:03:36.624Z,53.80
2023-02-21T17:06:04.700Z,54.10
2023-02-21T17:08:32.166Z,54.50
2023-02-21T17:10:59.489Z,55.00
2023-02-21T17:13:26.763Z,54.60
2023-02-21T17:15:54.792Z,54.90
2023-02-21T17:18:26.640Z,54.70
2023-02-21T17:21:01.533Z,54.80
2023-02-21T17:23:32.047Z,55.90
2023-02-21T17:26:02.155Z,56.80
2023-02-21T17:28:37.719Z,57.80
2023-02-21T17:31:05.412Z,57.90
2023-02-21T17:33:35.591Z,56.50
2023-02-21T17:36:02.946Z,55.40
2023-02-21T17:38:30.301Z,55.00
2023-02-21T17:40:59.720Z,56.40
2023-02-21T17:46:15.826Z,58.20
2023-02-21T17:48:46.134Z,58.10
2023-02-21T17:51:34.427Z,58.20
2023-02-21T17:54:01.951Z,58.50
2023-02-21T17:56:29.445Z,58.70
2023-02-21T17:59:00.322Z,59.00
2023-02-21T18:01:29.562Z,59.90
2023-02-21T18:03:57.051Z,60.50
2023-02-21T18:06:27.187Z,59.60
2023-02-21T18:08:58.115Z,59.20
2023-02-21T18:11:26.220Z,59.00
2023-02-21T18:13:58.755Z,59.40
2023-02-21T18:16:28.261Z,59.40
2023-02-21T18:18:58.235Z,59.20
2023-02-21T18:21:28.549Z,59.10
2023-02-21T18:24:07.557Z,59.70
2023-02-21T18:26:35.083Z,60.60
2023-02-21T18:29:08.717Z,61.10
2023-02-21T18:31:39.187Z,60.60
2023-02-21T18:34:08.960Z,61.00
2023-02-21T18:36:36.181Z,61.20
2023-02-21T18:39:03.643Z,61.10
2023-02-21T18:41:38.972Z,62.10
2023-02-21T18:44:21.655Z,62.00
2023-02-21T18:46:54.742Z,62.00
2023-02-21T18:49:25.527Z,62.90
2023-02-21T18:51:58.847Z,62.20
2023-02-21T18:54:27.177Z,61.90
2023-02-21T18:57:03.880Z,63.30
2023-02-21T18:59:34.758Z,63.90
2023-02-21T19:02:11.909Z,64.00
2023-02-21T19:04:43.408Z,63.80
2023-02-21T19:07:13.551Z,64.60
2023-02-21T19:09:43.915Z,64.60
2023-02-21T19:12:11.887Z,64.60
2023-02-21T19:14:39.664Z,64.70
2023-02-21T19:17:08.161Z,64.80
2023-02-21T19:19:39.021Z,65.30
2023-02-21T19:22:06.862Z,65.40
2023-02-21T19:24:37.871Z,65.00
2023-02-21T19:27:09.324Z,64.60
2023-02-21T19:29:42.086Z,65.40
2023-02-21T19:32:10.171Z,65.70
2023-02-21T19:34:49.787Z,65.50
2023-02-21T19:37:26.342Z,65.30
2023-02-21T19:39:58.966Z,66.60
2023-02-21T19:42:31.854Z,68.10
2023-02-21T19:45:07.305Z,68.10
2023-02-21T19:47:38.154Z,68.70
2023-02-21T19:50:11.980Z,68.10
2023-02-21T19:52:40.379Z,68.80
2023-02-21T19:55:11.087Z,68.50
2023-02-21T19:57:47.219Z,68.80
2023-02-21T20:00:19.129Z,68.30
2023-02-21T20:02:49.337Z,68.50
2023-02-21T20:05:20.045Z,68.70
2023-02-21T20:07:56.243Z,68.30
2023-02-21T20:10:30.799Z,68.00
2023-02-21T20:13:06.508Z,67.40
2023-02-21T20:15:35.390Z,69.00
2023-02-21T20:18:03.592Z,69.60
2023-02-21T20:20:30.957Z,69.60
2023-02-21T20:22:58.514Z,69.70
2023-02-21T20:25:25.828Z,70.10
2023-02-21T20:27:52.998Z,71.20
2023-02-21T20:30:20.465Z,71.60
2023-02-21T20:32:48.000Z,71.90
2023-02-21T20:35:15.216Z,71.20
2023-02-21T20:37:42.612Z,71.10
2023-02-21T20:40:11.225Z,71.10
2023-02-21T20:42:39.140Z,71.20
2023-02-21T20:45:08.042Z,71.70
2023-02-21T20:47:35.303Z,71.60
2023-02-21T20:50:02.915Z,72.40
2023-02-21T20:52:30.053Z,72.40
2023-02-21T20:54:57.387Z,71.00
2023-02-21T20:57:24.631Z,70.80
2023-02-21T20:59:52.247Z,71.30
2023-02-21T21:02:20.141Z,71.00
2023-02-21T21:04:48.380Z,71.40
2023-02-21T21:07:22.668Z,71.60
2023-02-21T21:09:50.273Z,71.80
2023-02-21T21:12:21.601Z,72.40
2023-02-21T21:14:51.066Z,73.30
2023-02-21T21:17:19.961Z,73.20
2023-02-21T21:19:49.054Z,73.70
2023-02-21T21:22:20.195Z,74.80
2023-02-21T21:24:47.510Z,75.80
2023-02-21T21:27:15.644Z,75.40
2023-02-21T21:29:45.312Z,74.80
2023-02-21T21:32:15.731Z,75.60
2023-02-21T21:34:47.325Z,76.40
2023-02-21T21:37:17.453Z,76.10
2023-02-21T21:39:46.225Z,76.10
2023-02-21T21:42:17.303Z,76.80
2023-02-21T21:44:47.137Z,76.70
2023-02-21T21:47:15.689Z,77.30
2023-02-21T21:49:42.881Z,79.20
2023-02-21T21:52:10.565Z,79.80
2023-02-21T21:54:37.900Z,81.30
2023-02-21T21:57:05.660Z,82.00
2023-02-21T21:59:33.076Z,82.10
2023-02-21T22:02:00.290Z,82.50
2023-02-21T22:04:27.565Z,82.50
2023-02-21T22:06:56.682Z,82.70
2023-02-21T22:09:25.750Z,82.80
2023-02-21T22:11:53.324Z,83.70
2023-02-21T22:14:22.879Z,84.50
2023-02-21T22:16:52.352Z,84.60
2023-02-21T22:19:22.308Z,84.10
2023-02-21T22:21:50.037Z,85.80
2023-02-21T22:24:20.879Z,86.30
2023-02-21T22:26:48.474Z,86.40
2023-02-21T22:29:17.014Z,87.90
2023-02-21T22:31:46.535Z,87.20
2023-02-21T22:34:23.696Z,88.60
2023-02-21T22:36:53.025Z,89.40
2023-02-21T22:39:21.495Z,90.20
2023-02-21T22:41:49.258Z,91.00
2023-02-21T22:44:18.922Z,91.50
2023-02-21T22:46:58.830Z,92.20
2023-02-21T22:49:29.327Z,93.50
2023-02-21T22:51:57.944Z,93.00
2023-02-21T22:54:26.662Z,93.10
2023-02-21T22:57:00.179Z,92.60
2023-02-21T22:59:27.583Z,92.40
2023-02-21T23:01:54.740Z,92.50
2023-02-21T23:04:27.812Z,92.40
2023-02-21T23:07:02.582Z,92.30
2023-02-21T23:09:31.181Z,92.50
2023-02-21T23:12:00.226Z,92.50
2023-02-21T23:14:31.720Z,92.80
2023-02-21T23:16:59.376Z,93.10
2023-02-21T23:19:29.275Z,93.00
2023-02-21T23:21:57.951Z,93.00
2023-02-21T23:24:25.296Z,93.00
2023-02-21T23:26:54.885Z,92.80
2023-02-21T23:29:24.591Z,92.70
2023-02-21T23:31:54.493Z,92.20
2023-02-21T23:34:22.114Z,92.40
2023-02-21T23:36:49.344Z,92.60
2023-02-21T23:39:16.961Z,93.20
2023-02-21T23:41:49.117Z,93.10
2023-02-21T23:44:16.946Z,93.70
2023-02-21T23:46:45.265Z,94.50
2023-02-21T23:49:16.197Z,95.70
2023-02-21T23:51:45.030Z,97.20
2023-02-21T23:54:13.780Z,98.70
2023-02-21T23:56:40.950Z,98.80
2023-02-21T23:59:08.525Z,98.20
